Time;durP1;ratioP1;P1;durP2;ratioP2;P2;SDS_P1;SDS_P2;PMS_P1;PMS_P2;Temp;Humidity;BMP_temperature;BMP_pressure;BME280_temperature;BME280_humidity;BME280_pressure;Samples;Min_cycle;Max_cycle;Signal;HPM_P1;HPM_P2
2022/01/21 00:03:03;;;;;;;9.70;1.40;;;;;;;-1.83;67.09;99195.64;105033;1273;67494;-73
2022/01/21 00:06:09;;;;;;;5.60;1.20;;;;;;;-1.90;67.27;99206.84;105054;1273;71305;-73
2022/01/21 00:09:05;;;;;;;6.20;1.10;;;;;;;-1.95;67.69;99210.35;104218;1273;1003083;-73
2022/01/21 00:12:05;;;;;;;6.10;1.20;;;;;;;-1.99;68.21;99221.12;104896;1273;59790;-73
2022/01/21 00:14:55;;;;;;;8.50;1.60;;;;;;;-1.98;68.86;99226.81;104598;1273;72263;-73
2022/01/21 00:17:54;;;;;;;6.60;1.20;;;;;;;-1.94;69.18;99231.68;104579;1273;66817;-73
2022/01/21 00:30:55;;;;;;;7.30;1.20;;;;;;;-1.52;69.20;99243.61;104700;1273;73712;-74
2022/01/21 00:33:52;;;;;;;6.90;1.20;;;;;;;-1.46;69.52;99241.60;104042;1273;1002984;-75
2022/01/21 00:36:49;;;;;;;4.80;1.00;;;;;;;-1.42;69.37;99240.89;104096;1273;1003820;-75
2022/01/21 00:39:39;;;;;;;6.70;1.30;;;;;;;-1.37;69.75;99244.00;104737;1273;59677;-75
2022/01/21 00:45:31;;;;;;;5.00;1.20;;;;;;;-1.32;69.30;99238.41;104880;1274;72931;-75
2022/01/21 00:48:20;;;;;;;6.50;1.10;;;;;;;-1.31;69.60;99243.06;104671;1273;68317;-75
2022/01/21 00:51:11;;;;;;;5.60;1.20;;;;;;;-1.30;69.64;99242.70;104588;1274;71662;-75
2022/01/21 00:54:02;;;;;;;4.80;0.90;;;;;;;-1.32;69.40;99245.55;104728;1273;59807;-75
2022/01/21 00:56:56;;;;;;;6.60;1.30;;;;;;;-1.33;69.60;99250.46;104553;1274;59558;-73
2022/01/21 00:59:46;;;;;;;8.80;1.30;;;;;;;-1.34;69.52;99260.09;104814;1273;72045;-73
2022/01/21 01:02:36;;;;;;;6.10;1.10;;;;;;;-1.33;69.73;99266.64;104788;1273;68587;-72
2022/01/21 01:05:26;;;;;;;5.50;1.60;;;;;;;-1.29;69.89;99267.73;104563;1273;72917;-72
2022/01/21 01:08:19;;;;;;;5.00;1.10;;;;;;;-1.26;69.47;99266.69;104587;1273;59672;-73
2022/01/21 01:20:19;;;;;;;6.30;1.00;;;;;;;-1.16;68.99;99283.20;104830;1273;73091;-71
2022/01/21 01:23:24;;;;;;;8.20;1.40;;;;;;;-1.14;69.33;99285.70;103756;1277;1015733;-71
2022/01/21 01:29:23;;;;;;;8.40;1.30;;;;;;;-1.11;69.00;99284.21;104611;1273;72319;-71
2022/01/21 01:32:11;;;;;;;5.80;1.10;;;;;;;-1.10;69.07;99290.77;104804;1273;68231;-71
2022/01/21 01:35:01;;;;;;;5.60;1.10;;;;;;;-1.08;68.83;99293.98;104511;1273;71843;-72
2022/01/21 01:40:56;;;;;;;5.80;1.20;;;;;;;-1.06;68.49;99300.17;104917;1273;60550;-73
2022/01/21 01:50:06;;;;;;;5.60;1.10;;;;;;;-1.06;68.32;99301.23;104981;1273;71886;-72
2022/01/21 01:53:00;;;;;;;6.90;1.20;;;;;;;-1.06;68.15;99302.60;103954;1274;1003101;-72
2022/01/21 01:55:51;;;;;;;6.60;1.40;;;;;;;-1.06;68.28;99313.20;104545;1273;59723;-72
2022/01/21 01:58:43;;;;;;;5.80;1.00;;;;;;;-1.05;68.46;99313.05;104561;1273;73277;-74
2022/01/21 02:01:32;;;;;;;4.60;0.90;;;;;;;-1.07;67.87;99321.45;105050;1273;68184;-74
2022/01/21 02:04:24;;;;;;;7.40;1.30;;;;;;;-1.09;67.90;99319.08;103503;1274;1003772;-75
2022/01/21 02:07:14;;;;;;;4.50;1.10;;;;;;;-1.08;67.97;99322.88;103991;1273;1003151;-74
2022/01/21 02:10:04;;;;;;;7.70;1.30;;;;;;;-1.08;67.28;99320.94;104668;1274;60839;-73
2022/01/21 02:13:03;;;;;;;6.00;1.30;;;;;;;-1.05;67.03;99328.17;104845;1274;73478;-74
2022/01/21 02:16:01;;;;;;;9.00;1.60;;;;;;;-1.04;67.17;99332.64;105041;1273;68226;-74
2022/01/21 02:22:03;;;;;;;6.80;1.60;;;;;;;-1.04;66.71;99335.41;105014;1274;60313;-74
2022/01/21 02:25:10;;;;;;;6.60;1.40;;;;;;;-1.03;66.91;99339.73;104815;1274;60748;-74
2022/01/21 02:28:14;;;;;;;7.00;1.30;;;;;;;-1.02;66.64;99340.92;105157;1274;73636;-73
2022/01/21 02:31:04;;;;;;;4.60;1.10;;;;;;;-1.03;66.33;99341.11;105077;1274;68667;-73
2022/01/21 02:33:54;;;;;;;6.40;1.30;;;;;;;-1.02;66.06;99342.48;104851;1274;73096;-73
2022/01/21 02:36:44;;;;;;;8.40;1.40;;;;;;;-1.02;66.15;99339.19;104186;1274;1003581;-74
2022/01/21 02:39:34;;;;;;;6.10;1.30;;;;;;;-1.04;66.03;99341.52;104004;1273;1003043;-73
2022/01/21 02:42:24;;;;;;;5.70;1.80;;;;;;;-1.04;66.34;99342.91;104915;1274;73490;-72
2022/01/21 02:45:15;;;;;;;6.90;1.50;;;;;;;-1.05;66.82;99340.16;104939;1273;67780;-72
2022/01/21 02:48:08;;;;;;;6.30;1.20;;;;;;;-1.06;66.60;99340.05;104623;1274;73103;-72
2022/01/21 02:50:57;;;;;;;5.20;1.20;;;;;;;-1.11;66.65;99341.27;104555;1273;60184;-72
2022/01/21 02:56:39;;;;;;;4.10;1.10;;;;;;;-1.10;66.24;99348.55;103894;1274;1003520;-74
2022/01/21 02:59:30;;;;;;;6.00;1.40;;;;;;;-1.11;66.49;99351.93;104616;1273;68294;-73
2022/01/21 03:02:26;;;;;;;5.90;1.60;;;;;;;-1.11;66.46;99354.55;103948;1273;1005937;-74
2022/01/21 03:05:16;;;;;;;6.90;1.50;;;;;;;-1.11;66.34;99356.81;104578;1273;60237;-73
2022/01/21 03:08:07;;;;;;;6.30;1.20;;;;;;;-1.12;66.64;99363.12;104452;1274;59765;-74
2022/01/21 03:10:57;;;;;;;6.20;1.30;;;;;;;-1.15;66.12;99366.52;104539;1274;73390;-74
2022/01/21 03:13:46;;;;;;;6.20;1.70;;;;;;;-1.14;66.25;99373.97;104475;1276;67442;-74
2022/01/21 03:16:35;;;;;;;6.80;1.30;;;;;;;-1.15;65.87;99376.63;104528;1273;73018;-74
2022/01/21 03:19:31;;;;;;;5.70;1.30;;;;;;;-1.16;65.86;99379.27;104498;1276;59944;-74
2022/01/21 03:22:21;;;;;;;7.40;1.40;;;;;;;-1.15;66.08;99390.06;104485;1276;60567;-74
2022/01/21 03:25:19;;;;;;;6.00;1.20;;;;;;;-1.16;66.00;99389.91;104506;1277;73301;-75
2022/01/21 03:28:13;;;;;;;4.50;1.30;;;;;;;-1.16;66.08;99391.14;104574;1277;67419;-74
2022/01/21 03:31:07;;;;;;;5.90;1.10;;;;;;;-1.15;66.23;99393.70;104609;1276;71866;-74
2022/01/21 03:33:59;;;;;;;5.30;1.10;;;;;;;-1.15;66.32;99398.92;104596;1277;60182;-75
2022/01/21 03:36:53;;;;;;;6.50;1.30;;;;;;;-1.15;66.04;99401.17;104634;1274;60619;-75
2022/01/21 03:39:51;;;;;;;5.70;1.10;;;;;;;-1.16;65.78;99398.44;104780;1273;72344;-75
2022/01/21 03:42:46;;;;;;;5.10;1.00;;;;;;;-1.16;65.58;99404.70;104840;1274;68104;-73
2022/01/21 03:45:39;;;;;;;6.40;1.50;;;;;;;-1.17;65.74;99404.06;104052;1274;1002700;-72
2022/01/21 03:48:29;;;;;;;4.60;1.10;;;;;;;-1.18;65.95;99400.59;104680;1273;60239;-72
2022/01/21 03:51:20;;;;;;;5.30;1.10;;;;;;;-1.18;65.89;99411.41;104587;1274;59681;-73
2022/01/21 03:54:12;;;;;;;6.10;1.10;;;;;;;-1.19;65.44;99412.84;104828;1275;72322;-73
2022/01/21 03:57:02;;;;;;;5.30;1.20;;;;;;;-1.19;65.86;99415.25;104925;1273;65608;-73
2022/01/21 03:59:52;;;;;;;9.30;1.40;;;;;;;-1.20;65.91;99414.77;104868;1273;72951;-73
2022/01/21 04:02:43;;;;;;;5.80;1.60;;;;;;;-1.19;65.72;99415.95;104767;1274;59824;-73
2022/01/21 04:05:39;;;;;;;8.80;1.50;;;;;;;-1.21;65.60;99416.70;104574;1274;59839;-73
2022/01/21 04:08:28;;;;;;;7.90;1.70;;;;;;;-1.21;65.48;99421.95;104493;1275;73416;-72
2022/01/21 04:11:21;;;;;;;6.40;1.30;;;;;;;-1.21;65.63;99416.20;104693;1274;68438;-72
2022/01/21 04:14:10;;;;;;;6.10;1.30;;;;;;;-1.21;65.51;99417.09;104508;1275;72869;-73
2022/01/21 04:17:01;;;;;;;7.70;1.60;;;;;;;-1.21;65.64;99425.79;104595;1274;59886;-72
2022/01/21 04:19:50;;;;;;;7.70;1.50;;;;;;;-1.23;65.34;99428.30;104561;1273;59720;-73
2022/01/21 04:22:40;;;;;;;4.50;1.20;;;;;;;-1.22;65.42;99432.10;104514;1276;72083;-73
2022/01/21 04:25:31;;;;;;;4.80;1.30;;;;;;;-1.23;65.30;99433.18;104543;1274;68385;-73
2022/01/21 04:28:21;;;;;;;5.80;1.20;;;;;;;-1.23;65.21;99435.62;104526;1275;73609;-73
2022/01/21 04:31:11;;;;;;;8.80;1.50;;;;;;;-1.25;65.20;99429.77;104571;1274;59810;-73
2022/01/21 04:34:07;;;;;;;7.70;1.30;;;;;;;-1.24;65.33;99432.53;104653;1273;59532;-72
2022/01/21 04:36:56;;;;;;;6.60;1.60;;;;;;;-1.25;65.15;99443.17;104548;1274;73522;-72
2022/01/21 04:40:08;;;;;;;4.50;1.20;;;;;;;-1.27;64.93;99439.44;104544;1276;66980;-73
2022/01/21 04:49:22;;;;;;;6.00;1.40;;;;;;;-1.29;65.38;99450.30;103962;1273;1003103;-73
2022/01/21 04:52:15;;;;;;;5.40;1.40;;;;;;;-1.30;64.93;99446.52;104634;1273;71414;-73
2022/01/21 04:55:15;;;;;;;7.90;1.70;;;;;;;-1.30;65.15;99453.33;104591;1273;66498;-75
2022/01/21 04:58:04;;;;;;;6.70;1.30;;;;;;;-1.31;64.95;99451.60;104083;1273;1003418;-74
2022/01/21 05:01:04;;;;;;;8.20;1.30;;;;;;;-1.32;64.99;99454.42;104543;1273;59827;-76
2022/01/21 05:04:01;;;;;;;6.40;1.40;;;;;;;-1.34;64.58;99453.29;104549;1274;59590;-73
2022/01/21 05:06:56;;;;;;;8.90;1.30;;;;;;;-1.36;65.00;99453.70;105262;1275;73791;-76
2022/01/21 05:09:50;;;;;;;5.60;1.30;;;;;;;-1.35;65.37;99455.23;105668;1274;1002503;-78
2022/01/21 05:12:42;;;;;;;6.80;1.20;;;;;;;-1.36;64.98;99450.06;105014;1276;73177;-75
2022/01/21 05:15:59;;;;;;;6.80;1.50;;;;;;;-1.38;65.47;99455.31;105724;1275;59902;-76
2022/01/21 05:18:51;;;;;;;6.10;1.30;;;;;;;-1.37;65.20;99456.52;104542;1273;1003879;-76
2022/01/21 05:22:03;;;;;;;6.60;1.30;;;;;;;-1.37;65.03;99450.96;104259;1274;1003086;-74
2022/01/21 05:25:01;;;;;;;5.30;1.30;;;;;;;-1.39;65.33;99457.29;105147;1276;68661;-75
2022/01/21 05:27:55;;;;;;;6.10;1.60;;;;;;;-1.40;65.39;99464.98;104793;1275;71811;-74
2022/01/21 05:30:46;;;;;;;6.60;1.40;;;;;;;-1.42;65.27;99461.24;104904;1277;59831;-74
2022/01/21 05:33:47;;;;;;;5.50;1.30;;;;;;;-1.44;65.42;99467.55;104915;1275;59412;-74
2022/01/21 05:37:09;;;;;;;5.70;1.30;;;;;;;-1.44;65.53;99470.70;105374;1275;72244;-75
2022/01/21 05:40:23;;;;;;;6.30;1.60;;;;;;;-1.46;65.55;99473.90;104811;1275;66151;-74
2022/01/21 05:43:47;;;;;;;7.40;1.60;;;;;;;-1.47;65.22;99475.71;104889;1276;70591;-74
2022/01/21 05:46:57;;;;;;;6.30;1.40;;;;;;;-1.47;65.30;99475.88;105105;1275;59960;-74
2022/01/21 05:50:10;;;;;;;8.50;1.60;;;;;;;-1.48;65.38;99473.83;105286;1276;59777;-74
2022/01/21 05:53:22;;;;;;;5.20;1.30;;;;;;;-1.50;64.84;99489.35;104252;1276;1003144;-74
2022/01/21 05:56:41;;;;;;;6.20;1.50;;;;;;;-1.50;65.06;99481.73;104975;1276;67306;-74
2022/01/21 05:59:53;;;;;;;8.00;1.80;;;;;;;-1.51;65.23;99483.83;104962;1275;71603;-75
2022/01/21 06:02:59;;;;;;;6.70;1.20;;;;;;;-1.52;65.26;99492.76;105158;1276;59798;-74
2022/01/21 06:05:52;;;;;;;5.90;1.40;;;;;;;-1.52;65.24;99495.74;104099;1276;1003902;-73
2022/01/21 06:08:42;;;;;;;5.70;1.50;;;;;;;-1.54;65.27;99497.34;105138;1274;72197;-74
2022/01/21 06:11:32;;;;;;;5.90;1.40;;;;;;;-1.55;65.10;99490.08;104709;1275;68415;-73
2022/01/21 06:14:21;;;;;;;6.80;1.50;;;;;;;-1.55;65.19;99494.44;104730;1274;73535;-73
2022/01/21 06:17:13;;;;;;;6.20;1.70;;;;;;;-1.56;65.35;99490.81;105330;1274;60249;-70
2022/01/21 06:20:02;;;;;;;6.30;1.70;;;;;;;-1.55;65.66;99499.66;104998;1275;59614;-75
2022/01/21 06:23:03;;;;;;;6.90;1.80;;;;;;;-1.57;65.94;99502.65;104128;1274;1003409;-76
2022/01/21 06:26:08;;;;;;;6.70;2.00;;;;;;;-1.56;66.04;99508.02;105325;1274;68406;-75
2022/01/21 06:29:01;;;;;;;6.40;1.60;;;;;;;-1.57;66.10;99511.90;104875;1275;72576;-73
2022/01/21 06:31:50;;;;;;;8.40;2.10;;;;;;;-1.57;66.55;99513.98;104764;1274;59906;-70
2022/01/21 06:34:39;;;;;;;6.80;1.60;;;;;;;-1.57;66.80;99521.83;104820;1274;59934;-69
2022/01/21 06:37:31;;;;;;;8.90;1.90;;;;;;;-1.57;66.86;99528.79;104889;1273;73426;-69
2022/01/21 06:40:21;;;;;;;6.20;1.40;;;;;;;-1.57;67.22;99533.31;104697;1274;69060;-69
2022/01/21 06:43:11;;;;;;;7.20;1.40;;;;;;;-1.57;66.88;99541.28;104852;1274;71454;-69
2022/01/21 06:46:03;;;;;;;6.50;1.80;;;;;;;-1.56;66.98;99544.95;106025;1274;59985;-71
2022/01/21 06:48:53;;;;;;;7.30;1.70;;;;;;;-1.54;66.67;99549.03;105270;1276;60763;-70
2022/01/21 06:51:44;;;;;;;7.90;1.70;;;;;;;-1.52;67.22;99556.98;105069;1274;73313;-68
2022/01/21 06:54:34;;;;;;;7.30;1.80;;;;;;;-1.50;67.06;99558.30;104780;1276;67128;-70
2022/01/21 06:57:23;;;;;;;6.70;1.60;;;;;;;-1.49;67.01;99560.32;104810;1275;73121;-68
2022/01/21 07:00:18;;;;;;;11.20;1.90;;;;;;;-1.49;67.23;99569.89;104807;1275;59732;-74
2022/01/21 07:03:07;;;;;;;9.40;1.90;;;;;;;-1.48;67.08;99574.41;105270;1275;59655;-76
2022/01/21 07:05:56;;;;;;;7.80;1.70;;;;;;;-1.47;67.43;99576.29;104029;1276;1002588;-71
2022/01/21 07:08:51;;;;;;;6.40;1.70;;;;;;;-1.48;67.40;99580.64;104732;1274;68281;-73
2022/01/21 07:11:42;;;;;;;7.70;2.00;;;;;;;-1.48;67.79;99573.88;104808;1275;73761;-71
2022/01/21 07:14:40;;;;;;;7.80;1.70;;;;;;;-1.48;67.65;99578.75;105307;1273;60242;-75
2022/01/21 07:17:30;;;;;;;5.80;1.70;;;;;;;-1.48;67.93;99582.76;104949;1279;59394;-72
2022/01/21 07:20:28;;;;;;;8.30;1.80;;;;;;;-1.47;67.81;99581.83;103890;1279;1003176;-75
2022/01/21 07:23:23;;;;;;;8.00;1.40;;;;;;;-1.47;67.91;99580.10;104837;1277;67987;-72
2022/01/21 07:26:30;;;;;;;6.00;1.40;;;;;;;-1.47;67.76;99589.50;105139;1279;72783;-72
2022/01/21 07:29:26;;;;;;;9.80;1.80;;;;;;;-1.44;67.81;99596.00;104257;1279;1002967;-73
2022/01/21 07:32:21;;;;;;;8.50;1.50;;;;;;;-1.42;67.90;99601.84;104684;1279;60760;-69
2022/01/21 07:35:45;;;;;;;;;;;;;;;;;;;;;
2022/01/21 07:39:22;;;;;;;8.00;1.90;;;;;;;-1.32;67.95;99596.99;104849;1278;68426;-76
2022/01/21 07:42:17;;;;;;;7.90;1.60;;;;;;;-1.27;67.52;99604.64;104726;1280;73160;-70
2022/01/21 07:45:12;;;;;;;6.00;1.60;;;;;;;-1.25;67.09;99603.48;104608;1279;59823;-71
2022/01/21 07:48:07;;;;;;;7.90;1.60;;;;;;;-1.23;66.59;99603.79;103753;1280;1002471;-71
2022/01/21 07:51:10;;;;;;;7.60;1.50;;;;;;;-1.23;66.55;99604.46;105287;1273;74492;-73
2022/01/21 07:54:04;;;;;;;8.00;1.80;;;;;;;-1.23;66.12;99614.56;105235;1273;67388;-73
2022/01/21 07:56:57;;;;;;;9.90;1.90;;;;;;;-1.23;66.01;99619.81;105030;1273;72980;-72
2022/01/21 07:59:46;;;;;;;6.60;1.40;;;;;;;-1.22;66.48;99623.61;105058;1273;59655;-73
2022/01/21 08:02:45;;;;;;;7.80;1.70;;;;;;;-1.23;66.17;99620.31;105343;1273;59791;-74
2022/01/21 08:05:35;;;;;;;7.60;1.50;;;;;;;-1.22;65.83;99622.55;105012;1273;73257;-73
2022/01/21 08:08:26;;;;;;;6.10;1.60;;;;;;;-1.21;66.08;99624.76;104786;1273;1003873;-72
2022/01/21 08:11:15;;;;;;;5.70;1.50;;;;;;;-1.19;65.91;99624.20;105271;1273;71974;-73
2022/01/21 08:14:04;;;;;;;5.90;1.50;;;;;;;-1.18;65.45;99628.49;105239;1273;60077;-73
2022/01/21 08:17:04;;;;;;;6.90;1.50;;;;;;;-1.13;65.59;99626.77;105104;1273;59680;-70
2022/01/21 08:19:56;;;;;;;8.80;1.80;;;;;;;-1.07;65.13;99625.83;105121;1273;73396;-69
2022/01/21 08:22:53;;;;;;;8.20;1.90;;;;;;;-0.95;65.35;99628.55;104294;1274;1003408;-70
2022/01/21 08:25:43;;;;;;;5.80;1.40;;;;;;;-0.90;64.24;99630.95;105514;1274;73013;-71
2022/01/21 08:28:35;;;;;;;6.20;1.20;;;;;;;-0.82;64.24;99632.38;105176;1273;60234;-72
2022/01/21 08:31:25;;;;;;;5.80;1.60;;;;;;;-0.70;64.06;99634.73;104962;1279;60696;-69
2022/01/21 08:34:18;;;;;;;6.10;1.50;;;;;;;-0.65;64.08;99640.29;104668;1279;73745;-68
2022/01/21 08:37:08;;;;;;;6.40;1.60;;;;;;;-0.66;64.20;99635.80;104662;1282;68603;-72
2022/01/21 08:39:57;;;;;;;7.80;1.50;;;;;;;-0.67;63.75;99636.90;104494;1279;73020;-73
2022/01/21 08:42:47;;;;;;;6.50;1.40;;;;;;;-0.71;63.46;99638.76;104218;1279;60233;-73
2022/01/21 08:45:39;;;;;;;7.60;1.80;;;;;;;-0.73;63.68;99632.23;104557;1280;60542;-71
2022/01/21 08:48:29;;;;;;;6.30;1.50;;;;;;;-0.71;63.44;99631.11;104175;1280;73308;-71
2022/01/21 08:51:25;;;;;;;6.60;1.60;;;;;;;-0.70;63.46;99632.98;104228;1280;68120;-70
2022/01/21 08:54:16;;;;;;;7.00;1.60;;;;;;;-0.71;63.75;99629.20;104334;1279;73123;-69
2022/01/21 08:57:12;;;;;;;6.10;1.60;;;;;;;-0.70;63.63;99632.10;103689;1279;1003851;-73
2022/01/21 09:00:13;;;;;;;6.40;1.40;;;;;;;-0.65;63.43;99640.31;104538;1279;59786;-73
2022/01/21 09:03:06;;;;;;;6.40;1.80;;;;;;;-0.64;63.34;99642.88;104805;1276;73247;-71
2022/01/21 09:06:01;;;;;;;6.70;1.60;;;;;;;-0.60;63.52;99641.49;105003;1274;68109;-72
2022/01/21 09:09:00;;;;;;;7.90;1.50;;;;;;;-0.53;63.04;99648.02;105883;1273;70557;-72
2022/01/21 09:11:59;;;;;;;7.80;1.70;;;;;;;-0.54;62.82;99649.65;104589;1273;1003827;-73
2022/01/21 09:15:01;;;;;;;8.30;2.10;;;;;;;-0.54;63.08;99655.89;105742;1274;59620;-74
2022/01/21 09:18:02;;;;;;;8.60;1.60;;;;;;;-0.50;62.82;99651.75;105368;1273;73446;-70
2022/01/21 09:20:54;;;;;;;6.50;1.50;;;;;;;-0.49;62.58;99650.15;105852;1274;68166;-70
2022/01/21 09:23:49;;;;;;;7.50;1.70;;;;;;;-0.51;62.40;99656.31;105119;1274;73050;-70
2022/01/21 09:26:41;;;;;;;7.40;1.70;;;;;;;-0.51;62.64;99655.13;105133;1274;60197;-70
2022/01/21 09:29:51;;;;;;;6.70;1.60;;;;;;;-0.49;62.53;99658.67;105155;1274;59625;-73
2022/01/21 09:32:48;;;;;;;6.30;1.70;;;;;;;-0.48;62.40;99651.14;105731;1273;73384;-69
2022/01/21 09:35:38;;;;;;;8.90;1.60;;;;;;;-0.47;61.97;99650.61;104962;1273;67144;-69
2022/01/21 09:38:29;;;;;;;7.80;1.80;;;;;;;-0.45;61.88;99660.79;105611;1273;71746;-70
2022/01/21 09:41:19;;;;;;;6.70;1.90;;;;;;;-0.43;61.69;99659.84;104958;1274;60267;-70
2022/01/21 09:44:19;;;;;;;5.50;1.20;;;;;;;-0.40;61.58;99655.89;105458;1273;59683;-70
2022/01/21 09:47:16;;;;;;;6.00;1.70;;;;;;;-0.43;61.81;99657.91;105270;1273;73430;-72
2022/01/21 09:50:16;;;;;;;6.50;1.30;;;;;;;-0.44;62.10;99655.33;105209;1273;376922;-72
2022/01/21 09:53:06;;;;;;;6.90;1.60;;;;;;;-0.41;62.39;99652.30;104986;1274;73621;-71
2022/01/21 09:55:59;;;;;;;7.60;1.90;;;;;;;-0.42;62.23;99654.23;105092;1274;59986;-69
2022/01/21 09:58:48;;;;;;;7.70;1.80;;;;;;;-0.40;62.49;99655.53;104208;1273;1002976;-70
2022/01/21 10:01:43;;;;;;;6.70;1.30;;;;;;;-0.35;62.50;99654.48;104962;1273;72562;-73
2022/01/21 10:04:47;;;;;;;6.30;1.80;;;;;;;-0.34;62.30;99653.04;105264;1274;68801;-73
2022/01/21 10:07:58;;;;;;;6.60;1.80;;;;;;;-0.33;61.80;99651.63;105178;1274;72069;-71
2022/01/21 10:10:59;;;;;;;5.60;1.60;;;;;;;-0.38;62.28;99651.30;104206;1273;1002570;-73
2022/01/21 10:13:59;;;;;;;7.10;1.90;;;;;;;-0.38;62.32;99654.95;105166;1274;59627;-73
2022/01/21 10:17:03;;;;;;;7.80;1.80;;;;;;;-0.39;62.28;99658.83;105065;1277;72708;-71
2022/01/21 10:21:04;;;;;;;8.30;1.90;;;;;;;-0.36;62.60;99659.55;105095;1275;66808;-73
2022/01/21 10:24:14;;;;;;;8.20;1.90;;;;;;;-0.30;63.00;99663.89;104939;1274;70868;-72
2022/01/21 10:27:05;;;;;;;7.30;1.60;;;;;;;-0.30;62.61;99663.52;104893;1274;60098;-73
2022/01/21 10:30:00;;;;;;;7.80;1.90;;;;;;;-0.27;62.60;99664.11;103970;1275;1003142;-74
2022/01/21 10:32:55;;;;;;;7.40;1.80;;;;;;;-0.29;62.77;99662.64;104952;1274;72492;-75
2022/01/21 10:36:43;;;;;;;8.10;1.90;;;;;;;-0.29;62.69;99664.52;104792;1277;68314;-74
2022/01/21 10:40:08;;;;;;;8.40;1.60;;;;;;;-0.31;63.21;99669.33;104998;1275;71663;-70
2022/01/21 10:43:38;;;;;;;8.70;2.00;;;;;;;-0.35;62.99;99681.15;105602;1274;61304;-75
2022/01/21 10:47:51;;;;;;;7.70;1.90;;;;;;;-0.40;63.33;99683.25;105309;1275;60267;-76
2022/01/21 10:51:37;;;;;;;7.90;2.00;;;;;;;-0.38;63.46;99688.07;105728;1274;72027;-75
2022/01/21 10:54:54;;;;;;;7.30;1.60;;;;;;;-0.38;63.44;99684.40;105996;1273;66991;-76
2022/01/21 10:58:15;;;;;;;9.20;1.90;;;;;;;-0.36;63.51;99685.20;105312;1274;70960;-76
2022/01/21 11:02:27;;;;;;;7.00;1.90;;;;;;;-0.37;63.82;99687.15;105195;1273;59608;-77
2022/01/21 11:05:40;;;;;;;10.00;1.90;;;;;;;-0.35;64.09;99686.02;104421;1281;60560;-71
2022/01/21 11:08:34;;;;;;;7.70;2.20;;;;;;;-0.26;64.28;99684.65;104175;1285;71894;-70
2022/01/21 11:11:23;;;;;;;7.90;2.10;;;;;;;-0.18;63.41;99678.59;104294;1282;68455;-74
2022/01/21 11:14:20;;;;;;;6.60;1.60;;;;;;;-0.18;63.01;99684.66;104785;1281;73440;-70
2022/01/21 11:17:31;;;;;;;7.60;1.80;;;;;;;-0.19;62.79;99680.00;104194;1282;60160;-77
2022/01/21 11:20:23;;;;;;;7.20;2.10;;;;;;;-0.13;62.95;99679.27;104169;1282;59693;-70
2022/01/21 11:23:17;;;;;;;6.00;1.50;;;;;;;0.04;63.13;99687.11;104348;1282;73473;-72
2022/01/21 11:26:14;;;;;;;5.40;1.40;;;;;;;0.15;62.49;99684.38;103415;1281;1003634;-73
2022/01/21 11:29:09;;;;;;;6.90;1.70;;;;;;;0.12;61.99;99684.70;104163;1282;71987;-69
2022/01/21 11:32:01;;;;;;;7.50;1.70;;;;;;;0.10;61.77;99684.63;103985;1282;59866;-70
2022/01/21 11:35:30;;;;;;;;;;;;;;;;;;;;;
2022/01/21 11:40:07;;;;;;;;;;;;;;;;;;;;;
2022/01/21 11:43:45;;;;;;;7.10;1.50;;;;;;;0.05;61.17;99693.55;104754;1277;66082;-72
2022/01/21 11:47:02;;;;;;;5.70;1.40;;;;;;;0.08;61.04;99688.20;104818;1277;73222;-72
2022/01/21 11:50:33;;;;;;;8.30;1.40;;;;;;;0.03;60.17;99695.02;101809;1313;602040;-74
2022/01/21 11:53:56;;;;;;;7.90;1.60;;;;;;;-0.02;60.79;99693.79;104202;1287;59967;-74
2022/01/21 11:57:06;;;;;;;6.60;1.40;;;;;;;-0.11;60.28;99696.27;104003;1287;60956;-74
2022/01/21 12:00:39;;;;;;;5.80;1.70;;;;;;;-0.22;60.94;99684.82;104027;1287;71116;-74
2022/01/21 12:03:53;;;;;;;5.90;1.50;;;;;;;-0.27;61.10;99685.90;102203;1284;3285508;-74
2022/01/21 12:06:45;;;;;;;6.00;1.60;;;;;;;-0.30;61.12;99689.33;103985;1284;71706;-74
2022/01/21 12:10:51;;;;;;;8.60;1.60;;;;;;;-0.34;61.37;99687.58;104124;1284;59802;-74
2022/01/21 12:13:42;;;;;;;6.70;1.40;;;;;;;-0.37;61.81;99688.01;104559;1284;59392;-75
2022/01/21 12:17:21;;;;;;;7.30;1.60;;;;;;;-0.39;61.79;99694.22;104033;1284;71151;-75
2022/01/21 12:20:33;;;;;;;8.20;1.90;;;;;;;-0.46;62.18;99683.50;103549;1284;1002941;-75
2022/01/21 12:23:48;;;;;;;5.70;1.30;;;;;;;-0.44;61.86;99692.45;104169;1284;72091;-75
2022/01/21 12:27:09;;;;;;;7.90;1.60;;;;;;;-0.46;62.42;99695.70;104184;1284;59301;-74
2022/01/21 12:30:27;;;;;;;6.50;1.80;;;;;;;-0.46;62.59;99693.23;104312;1271;1005328;-75
2022/01/21 12:34:08;;;;;;;5.70;1.60;;;;;;;-0.40;62.62;99706.63;104985;1272;70873;-74
2022/01/21 12:37:23;;;;;;;5.80;1.50;;;;;;;-0.37;62.25;99698.66;104341;1271;1003305;-74
2022/01/21 12:40:37;;;;;;;8.30;1.70;;;;;;;-0.39;62.48;99702.56;105276;1271;73296;-75
2022/01/21 12:43:50;;;;;;;7.90;2.00;;;;;;;-0.39;62.01;99703.77;105181;1271;59796;-74
2022/01/21 12:46:45;;;;;;;6.40;1.80;;;;;;;-0.40;61.82;99711.67;105309;1271;59262;-74
2022/01/21 12:49:53;;;;;;;6.80;1.90;;;;;;;-0.45;61.95;99707.86;105483;1271;70894;-76
2022/01/21 12:53:25;;;;;;;7.40;1.80;;;;;;;-0.52;62.21;99714.02;105604;1271;68798;-76
2022/01/21 12:56:22;;;;;;;9.80;1.60;;;;;;;-0.59;62.01;99725.09;104667;1272;1015966;-78
2022/01/21 12:59:21;;;;;;;6.60;1.50;;;;;;;-0.62;62.11;99719.98;104512;1272;1016471;-77
2022/01/21 13:02:33;;;;;;;5.90;1.60;;;;;;;-0.63;62.31;99717.09;105282;1274;60772;-77
2022/01/21 13:05:51;;;;;;;5.30;1.30;;;;;;;-0.70;62.64;99716.63;105231;1274;70648;-76
2022/01/21 13:09:25;;;;;;;7.20;1.90;;;;;;;-0.74;62.47;99719.20;105074;1274;66105;-77
2022/01/21 13:13:17;;;;;;;4.60;1.30;;;;;;;-0.76;62.73;99710.59;105043;1274;72858;-76
2022/01/21 13:16:40;;;;;;;6.60;1.40;;;;;;;-0.72;63.10;99713.55;105291;1274;59318;-77
2022/01/21 13:19:51;;;;;;;7.60;1.90;;;;;;;-0.70;62.85;99709.14;104525;1274;1003734;-76
2022/01/21 13:22:45;;;;;;;7.40;1.50;;;;;;;-0.71;62.58;99711.41;105375;1274;71871;-78
2022/01/21 13:26:51;;;;;;;7.20;1.70;;;;;;;-0.79;62.42;99709.64;105072;1274;67989;-77
2022/01/21 13:30:15;;;;;;;5.60;1.40;;;;;;;-0.80;62.42;99714.20;104551;1280;1003127;-76
2022/01/21 13:33:19;;;;;;;6.00;1.40;;;;;;;-0.83;62.72;99723.55;104636;1280;59335;-77
2022/01/21 13:36:13;;;;;;;7.50;2.10;;;;;;;-0.85;62.63;99722.23;104324;1282;59520;-76
2022/01/21 13:39:31;;;;;;;7.00;1.80;;;;;;;-0.87;62.63;99722.30;104543;1280;71963;-76
2022/01/21 13:42:38;;;;;;;7.70;1.70;;;;;;;-0.91;62.75;99723.64;104470;1279;68096;-76
2022/01/21 13:46:05;;;;;;;8.00;1.70;;;;;;;-0.92;63.04;99730.48;104251;1280;71870;-77
2022/01/21 13:49:28;;;;;;;4.80;1.50;;;;;;;-0.92;63.24;99733.80;104860;1280;59913;-76
2022/01/21 13:52:18;;;;;;;6.80;1.80;;;;;;;-0.96;63.02;99737.95;104406;1282;60595;-77
2022/01/21 13:55:28;;;;;;;5.80;1.70;;;;;;;-0.98;62.89;99738.38;103376;1282;1003366;-76
2022/01/21 13:59:04;;;;;;;7.20;1.70;;;;;;;-1.04;62.86;99741.54;104189;1282;68539;-76
2022/01/21 14:07:07;;;;;;;6.30;1.40;;;;;;;-1.03;63.14;99735.75;104393;1281;59327;-76
2022/01/21 14:11:24;;;;;;;11.30;2.20;;;;;;;-1.03;63.64;99738.36;104749;1281;60668;-76
2022/01/21 14:15:44;;;;;;;8.50;2.00;;;;;;;-1.06;63.49;99737.40;104716;1281;70020;-76
2022/01/21 14:19:47;;;;;;;10.90;2.10;;;;;;;-1.08;64.18;99747.58;103903;1290;66803;-77
2022/01/21 14:27:50;;;;;;;6.60;2.20;;;;;;;-1.13;63.38;99757.35;102995;1296;59308;-77
2022/01/21 14:30:57;;;;;;;8.50;2.00;;;;;;;-1.16;63.35;99763.20;102949;1295;61600;-78
2022/01/21 14:33:46;;;;;;;7.10;1.80;;;;;;;-1.19;63.18;99767.64;102763;1296;1003909;-77
2022/01/21 14:36:41;;;;;;;7.20;1.70;;;;;;;-1.22;62.69;99768.59;103036;1297;65885;-76
2022/01/21 14:39:44;;;;;;;6.70;1.70;;;;;;;-1.24;62.87;99767.98;102055;1296;1003444;-77
2022/01/21 14:43:22;;;;;;;7.20;1.80;;;;;;;-1.21;63.32;99770.66;101540;1305;1003274;-76
2022/01/21 14:46:34;;;;;;;6.70;1.70;;;;;;;-1.24;63.10;99776.17;103638;1286;1003884;-76
2022/01/21 14:50:23;;;;;;;6.70;1.80;;;;;;;-1.28;63.28;99785.02;103313;1286;1003188;-77
2022/01/21 14:53:44;;;;;;;8.30;1.80;;;;;;;-1.26;64.81;99795.88;103315;1286;1002847;-76
2022/01/21 14:57:17;;;;;;;6.80;1.70;;;;;;;-1.24;64.45;99798.98;103437;1283;1003147;-75
2022/01/21 15:00:25;;;;;;;16.70;3.90;;;;;;;-1.26;64.17;99805.14;104388;1283;71771;-76
2022/01/21 15:03:29;;;;;;;15.30;3.20;;;;;;;-1.28;64.40;99807.80;104519;1283;59330;-76
2022/01/21 15:07:24;;;;;;;8.80;2.30;;;;;;;-1.30;64.75;99811.52;104303;1283;59336;-76
2022/01/21 15:11:03;;;;;;;7.50;2.20;;;;;;;-1.32;64.85;99809.85;103440;1290;1003072;-72